createdAt,value
2023-02-12T00:02:03.371Z,5.35
2023-02-12T00:04:29.955Z,5.38
2023-02-12T00:06:56.616Z,6.03
2023-02-12T00:09:23.234Z,5.43
2023-02-12T00:11:49.879Z,5.53
2023-02-12T00:14:16.437Z,6.40
2023-02-12T00:16:43.113Z,6.03
2023-02-12T00:19:09.852Z,5.45
2023-02-12T00:21:36.711Z,5.97
2023-02-12T00:24:03.722Z,5.57
2023-02-12T00:26:30.294Z,5.90
2023-02-12T00:28:56.898Z,6.70
2023-02-12T00:31:26.033Z,5.40
2023-02-12T00:33:53.129Z,5.63
2023-02-12T00:36:22.348Z,5.88
2023-02-12T00:38:50.937Z,5.50
2023-02-12T00:43:44.316Z,5.60
2023-02-12T00:46:11.575Z,5.60
2023-02-12T00:48:38.273Z,5.88
2023-02-12T00:51:05.318Z,5.43
2023-02-12T00:53:32.409Z,5.05
2023-02-12T00:55:59.402Z,5.07
2023-02-12T00:58:26.154Z,5.05
2023-02-12T01:00:53.579Z,5.57
2023-02-12T01:03:20.287Z,5.30
2023-02-12T01:05:47.144Z,5.40
2023-02-12T01:08:15.733Z,5.38
2023-02-12T01:10:43.288Z,5.00
2023-02-12T01:13:14.454Z,5.72
2023-02-12T01:15:41.917Z,5.40
2023-02-12T01:18:08.533Z,5.28
2023-02-12T01:20:35.266Z,5.90
2023-02-12T01:23:01.826Z,5.38
2023-02-12T01:25:28.374Z,6.05
2023-02-12T01:27:55.210Z,5.85
2023-02-12T01:30:24.190Z,5.90
2023-02-12T01:32:50.830Z,5.88
2023-02-12T01:35:17.555Z,5.68
2023-02-12T01:37:44.165Z,5.63
2023-02-12T01:40:13.205Z,6.30
2023-02-12T01:42:40.388Z,7.05
2023-02-12T01:45:13.170Z,6.65
2023-02-12T01:47:44.493Z,6.80
2023-02-12T01:50:17.906Z,6.88
2023-02-12T01:52:48.203Z,6.55
2023-02-12T01:55:15.397Z,6.97
2023-02-12T01:57:44.054Z,6.93
2023-02-12T02:00:14.919Z,6.70
2023-02-12T02:02:43.807Z,7.45
2023-02-12T02:05:10.645Z,7.40
2023-02-12T02:07:37.207Z,7.03
2023-02-12T02:10:04.848Z,8.07
2023-02-12T02:12:50.077Z,7.10
2023-02-12T02:15:16.833Z,7.43
2023-02-12T02:18:12.316Z,7.88
2023-02-12T02:21:03.501Z,8.80
2023-02-12T02:23:54.855Z,7.50
2023-02-12T02:26:53.823Z,8.98
2023-02-12T02:29:48.114Z,9.68
2023-02-12T02:32:25.086Z,9.45
2023-02-12T02:35:08.141Z,9.85
2023-02-12T02:37:53.305Z,10.52
2023-02-12T02:40:26.995Z,11.35
2023-02-12T02:43:18.473Z,10.45
2023-02-12T02:45:51.433Z,11.27
2023-02-12T02:48:28.073Z,12.13
2023-02-12T02:50:59.413Z,11.30
2023-02-12T02:53:32.359Z,13.35
2023-02-12T02:56:01.702Z,12.60
2023-02-12T02:58:35.902Z,14.10
2023-02-12T03:01:13.598Z,13.75
2023-02-12T03:03:41.754Z,13.45
2023-02-12T03:06:18.683Z,14.52
2023-02-12T03:08:52.644Z,15.00
2023-02-12T03:11:28.933Z,15.38
2023-02-12T03:14:07.717Z,15.68
2023-02-12T03:16:37.470Z,17.75
2023-02-12T03:19:23.552Z,17.23
2023-02-12T03:21:55.188Z,16.95
2023-02-12T03:24:30.874Z,17.77
2023-02-12T03:27:07.335Z,16.90
2023-02-12T03:29:34.097Z,17.00
2023-02-12T03:32:09.518Z,20.17
2023-02-12T03:34:45.009Z,18.42
2023-02-12T03:37:17.018Z,19.85
2023-02-12T03:39:49.782Z,18.85
2023-02-12T03:42:37.363Z,19.42
2023-02-12T03:45:10.501Z,18.13
2023-02-12T03:47:49.886Z,18.52
2023-02-12T03:50:21.575Z,19.30
2023-02-12T03:52:50.107Z,19.13
2023-02-12T03:57:52.274Z,19.02
2023-02-12T04:00:22.739Z,18.65
2023-02-12T04:02:49.442Z,18.23
2023-02-12T04:05:22.258Z,18.25
2023-02-12T04:07:49.767Z,18.85
2023-02-12T04:10:17.119Z,18.55
2023-02-12T04:12:57.820Z,17.38
2023-02-12T04:15:43.186Z,18.42
2023-02-12T04:18:20.820Z,17.65
2023-02-12T04:21:01.786Z,16.95
2023-02-12T04:23:53.231Z,19.35
2023-02-12T04:26:30.760Z,17.42
2023-02-12T04:28:59.720Z,17.63
2023-02-12T04:31:50.174Z,18.15
2023-02-12T04:34:28.868Z,16.00
2023-02-12T04:37:04.470Z,15.40
2023-02-12T04:39:34.519Z,16.27
2023-02-12T04:42:01.720Z,16.88
2023-02-12T04:44:32.002Z,15.98
2023-02-12T04:46:58.725Z,15.90
2023-02-12T04:49:25.604Z,15.13
2023-02-12T04:51:52.537Z,14.40
2023-02-12T04:54:21.188Z,13.80
2023-02-12T04:56:47.920Z,15.10
2023-02-12T04:59:15.063Z,14.40
2023-02-12T05:01:42.541Z,14.38
2023-02-12T05:04:12.148Z,14.00
2023-02-12T05:06:39.839Z,14.07
2023-02-12T05:09:07.445Z,15.87
2023-02-12T05:11:34.131Z,16.15
2023-02-12T05:14:00.739Z,16.65
2023-02-12T05:16:27.670Z,17.23
2023-02-12T05:18:54.239Z,18.30
2023-02-12T05:21:20.818Z,18.73
2023-02-12T05:23:47.417Z,18.95
2023-02-12T05:26:17.201Z,20.85
2023-02-12T05:28:44.066Z,19.45
2023-02-12T05:31:14.861Z,20.70
2023-02-12T05:33:46.051Z,23.00
2023-02-12T05:36:17.831Z,22.70
2023-02-12T05:38:44.646Z,22.48
2023-02-12T05:41:13.608Z,23.10
2023-02-12T05:43:40.923Z,23.25
2023-02-12T05:46:08.828Z,23.40
2023-02-12T05:48:36.238Z,23.38
2023-02-12T05:51:14.450Z,25.38
2023-02-12T05:53:41.816Z,23.40
2023-02-12T05:56:35.855Z,24.35
2023-02-12T05:59:07.502Z,22.95
2023-02-12T06:01:40.031Z,24.25
2023-02-12T06:04:14.902Z,24.80
2023-02-12T06:06:42.345Z,25.52
2023-02-12T06:09:10.395Z,23.33
2023-02-12T06:11:37.272Z,24.48
2023-02-12T06:14:08.837Z,26.38
2023-02-12T06:16:35.662Z,23.40
2023-02-12T06:19:04.562Z,22.83
2023-02-12T06:21:31.524Z,24.55
2023-02-12T06:23:58.404Z,23.92
2023-02-12T06:26:25.471Z,27.23
2023-02-12T06:28:52.562Z,29.45
2023-02-12T06:31:23.417Z,30.23
2023-02-12T06:33:50.825Z,32.08
2023-02-12T06:36:17.980Z,31.10
2023-02-12T06:38:44.546Z,33.92
2023-02-12T06:41:11.182Z,33.30
2023-02-12T06:43:37.877Z,35.38
2023-02-12T06:46:05.382Z,32.83
2023-02-12T06:48:31.985Z,36.47
2023-02-12T06:51:09.631Z,38.97
2023-02-12T06:53:36.230Z,37.33
2023-02-12T06:56:04.944Z,33.28
2023-02-12T06:58:32.165Z,33.83
2023-02-12T07:01:08.702Z,35.47
2023-02-12T07:03:35.376Z,35.05
2023-02-12T07:06:03.800Z,36.85
2023-02-12T07:08:30.383Z,34.55
2023-02-12T07:10:56.934Z,35.70
2023-02-12T07:13:23.531Z,35.67
2023-02-12T07:15:50.240Z,35.92
2023-02-12T07:18:16.950Z,38.70
2023-02-12T07:20:43.540Z,36.78
2023-02-12T07:23:13.751Z,34.08
2023-02-12T07:25:40.456Z,38.95
2023-02-12T07:28:06.997Z,37.63
2023-02-12T07:30:33.680Z,37.30
2023-02-12T07:33:00.342Z,39.08
2023-02-12T07:35:26.902Z,38.63
2023-02-12T07:37:53.626Z,38.90
2023-02-12T07:40:20.424Z,38.65
2023-02-12T07:42:50.010Z,38.35
2023-02-12T07:45:16.651Z,34.90
2023-02-12T07:47:43.240Z,37.20
2023-02-12T07:50:10.272Z,38.33
2023-02-12T07:52:36.890Z,37.13
2023-02-12T07:55:03.546Z,36.08
2023-02-12T07:57:30.217Z,34.20
2023-02-12T07:59:56.792Z,34.47
2023-02-12T08:02:25.637Z,33.65
2023-02-12T08:04:57.279Z,34.47
2023-02-12T08:07:24.224Z,32.72
2023-02-12T08:09:51.504Z,34.42
2023-02-12T08:12:18.467Z,31.85
2023-02-12T08:14:45.263Z,32.03
2023-02-12T08:17:11.873Z,30.17
2023-02-12T08:19:38.531Z,29.95
2023-02-12T08:22:06.509Z,30.65
2023-02-12T08:24:33.423Z,30.90
2023-02-12T08:27:00.145Z,29.92
2023-02-12T08:29:29.567Z,28.42
2023-02-12T08:31:58.661Z,28.88
2023-02-12T08:34:28.157Z,29.08
2023-02-12T08:36:56.016Z,28.13
2023-02-12T08:39:24.058Z,30.65
2023-02-12T08:41:50.740Z,31.05
2023-02-12T08:44:17.773Z,26.50
2023-02-12T08:46:50.230Z,28.33
2023-02-12T08:49:22.338Z,28.88
2023-02-12T08:51:51.954Z,26.80
2023-02-12T08:54:23.945Z,27.95
2023-02-12T08:56:51.427Z,28.70
2023-02-12T08:59:18.052Z,29.05
2023-02-12T09:01:45.007Z,27.48
2023-02-12T09:04:21.622Z,28.45
2023-02-12T09:06:48.839Z,25.75
2023-02-12T09:09:16.050Z,26.65
2023-02-12T09:11:43.059Z,26.17
2023-02-12T09:14:12.816Z,25.77
2023-02-12T09:16:42.357Z,27.33
2023-02-12T09:19:10.925Z,27.67
2023-02-12T09:24:04.229Z,28.42
2023-02-12T09:26:31.132Z,27.45
2023-02-12T09:28:57.858Z,29.08
2023-02-12T09:31:27.631Z,28.27
2023-02-12T09:34:05.645Z,27.80
2023-02-12T09:36:33.291Z,29.10
2023-02-12T09:39:00.503Z,26.77
2023-02-12T09:41:54.594Z,26.55
2023-02-12T09:44:26.868Z,27.73
2023-02-12T09:47:11.747Z,28.35
2023-02-12T09:49:55.781Z,26.48
2023-02-12T09:52:26.866Z,25.27
2023-02-12T09:54:53.720Z,26.67
2023-02-12T09:57:35.767Z,24.45
2023-02-12T10:00:16.312Z,24.98
2023-02-12T10:02:43.025Z,25.55
2023-02-12T10:05:18.231Z,24.63
2023-02-12T10:07:57.030Z,24.95
2023-02-12T10:10:42.432Z,24.88
2023-02-12T10:13:31.842Z,22.55
2023-02-12T10:16:27.022Z,22.45
2023-02-12T10:19:30.047Z,24.90
2023-02-12T10:22:08.661Z,23.38
2023-02-12T10:24:53.423Z,24.30
2023-02-12T10:27:45.240Z,21.33
2023-02-12T10:30:27.109Z,21.05
2023-02-12T10:33:00.997Z,21.38
2023-02-12T10:35:27.781Z,19.55
2023-02-12T10:38:03.286Z,18.80
2023-02-12T10:40:34.441Z,19.80
2023-02-12T10:43:02.113Z,17.42
2023-02-12T10:45:38.279Z,16.47
2023-02-12T10:48:11.875Z,16.65
2023-02-12T10:51:21.129Z,17.00
2023-02-12T10:53:48.580Z,16.48
2023-02-12T10:56:19.147Z,17.30
2023-02-12T10:59:01.853Z,14.32
2023-02-12T11:01:34.478Z,15.15
2023-02-12T11:04:24.483Z,14.73
2023-02-12T11:07:00.435Z,15.30
2023-02-12T11:09:35.394Z,14.77
2023-02-12T11:12:03.023Z,14.32
2023-02-12T11:14:29.640Z,14.83
2023-02-12T11:16:58.367Z,14.20
2023-02-12T11:19:27.950Z,14.88
2023-02-12T11:22:19.339Z,14.38
2023-02-12T11:24:47.086Z,13.82
2023-02-12T11:27:16.566Z,13.45
2023-02-12T11:29:44.650Z,11.80
2023-02-12T11:32:19.357Z,11.82
2023-02-12T11:35:17.912Z,12.50
2023-02-12T11:37:46.295Z,11.07
2023-02-12T11:40:22.282Z,12.35
2023-02-12T11:42:58.408Z,11.73
2023-02-12T11:45:47.592Z,10.82
2023-02-12T11:48:21.261Z,11.00
2023-02-12T11:50:49.452Z,12.45
2023-02-12T11:53:25.953Z,11.73
2023-02-12T11:55:58.966Z,11.75
2023-02-12T11:58:26.989Z,11.00
2023-02-12T12:00:59.605Z,10.05
2023-02-12T12:03:43.903Z,11.63
2023-02-12T12:06:16.634Z,9.82
2023-02-12T12:09:04.238Z,8.68
2023-02-12T12:12:08.021Z,8.68
2023-02-12T12:15:01.708Z,9.68
2023-02-12T12:17:58.054Z,8.48
2023-02-12T12:20:27.892Z,8.52
2023-02-12T12:23:02.462Z,9.02
2023-02-12T12:25:35.153Z,7.97
2023-02-12T12:28:29.095Z,7.68
2023-02-12T12:31:14.110Z,7.80
2023-02-12T12:33:50.355Z,7.38
2023-02-12T12:36:25.941Z,6.10
2023-02-12T12:39:07.201Z,6.20
2023-02-12T12:41:48.125Z,4.97
2023-02-12T12:44:25.884Z,4.20
2023-02-12T12:47:04.533Z,4.70
2023-02-12T12:49:37.205Z,4.30
2023-02-12T12:52:08.239Z,4.45
2023-02-12T12:55:21.421Z,4.25
2023-02-12T12:58:25.358Z,4.82
2023-02-12T13:01:18.296Z,5.38
2023-02-12T13:03:57.094Z,5.55
2023-02-12T13:06:26.471Z,5.10
2023-02-12T13:09:13.806Z,5.28
2023-02-12T13:11:52.527Z,4.85
2023-02-12T13:14:27.942Z,5.00
2023-02-12T13:17:22.442Z,5.00
2023-02-12T13:20:12.319Z,5.45
2023-02-12T13:22:55.657Z,4.68
2023-02-12T13:25:26.631Z,4.75
2023-02-12T13:27:54.393Z,4.95
2023-02-12T13:30:34.257Z,5.05
2023-02-12T13:33:06.802Z,4.13
2023-02-12T13:35:35.539Z,4.20
2023-02-12T13:38:03.048Z,4.80
2023-02-12T13:40:30.789Z,4.70
2023-02-12T13:43:34.317Z,5.03
2023-02-12T13:46:27.020Z,4.30
2023-02-12T13:49:24.397Z,4.75
2023-02-12T13:51:57.266Z,5.10
2023-02-12T13:54:57.247Z,5.25
2023-02-12T13:57:23.844Z,4.75
2023-02-12T13:59:55.496Z,4.47
2023-02-12T14:02:34.690Z,4.35
2023-02-12T14:05:13.286Z,5.95
2023-02-12T14:07:45.757Z,4.80
2023-02-12T14:10:26.905Z,4.75
2023-02-12T14:12:56.106Z,5.25
2023-02-12T14:15:45.561Z,5.03
2023-02-12T14:18:21.814Z,5.13
2023-02-12T14:20:48.466Z,5.20
2023-02-12T14:23:27.448Z,6.22
2023-02-12T14:26:15.341Z,6.28
2023-02-12T14:28:47.677Z,5.50
2023-02-12T14:31:23.799Z,5.45
2023-02-12T14:34:16.615Z,4.85
2023-02-12T14:36:45.133Z,5.28
2023-02-12T14:41:48.510Z,4.90
2023-02-12T14:44:18.119Z,5.22
2023-02-12T14:46:50.070Z,5.95
2023-02-12T14:49:25.478Z,4.65
2023-02-12T14:52:09.582Z,4.93
2023-02-12T14:54:41.022Z,4.97
2023-02-12T14:57:12.916Z,5.57
2023-02-12T14:59:41.753Z,5.63
2023-02-12T15:02:23.306Z,6.32
2023-02-12T15:04:51.000Z,5.25
2023-02-12T15:07:24.859Z,4.93
2023-02-12T15:09:58.080Z,5.40
2023-02-12T15:12:34.899Z,6.43
2023-02-12T15:15:08.748Z,5.90
2023-02-12T15:17:39.163Z,6.20
2023-02-12T15:20:20.526Z,5.65
2023-02-12T15:22:47.314Z,5.78
2023-02-12T15:25:28.106Z,5.18
2023-02-12T15:28:02.099Z,5.45
2023-02-12T15:30:34.317Z,5.43
2023-02-12T15:33:04.526Z,5.95
2023-02-12T15:35:33.810Z,5.50
2023-02-12T15:38:01.265Z,6.22
2023-02-12T15:40:31.868Z,5.57
2023-02-12T15:43:00.749Z,5.57
2023-02-12T15:45:35.981Z,4.97
2023-02-12T15:48:14.125Z,5.32
2023-02-12T15:50:48.256Z,5.75
2023-02-12T15:53:15.031Z,5.38
2023-02-12T15:55:44.433Z,5.55
2023-02-12T15:58:31.768Z,5.03
2023-02-12T16:01:03.907Z,5.32
2023-02-12T16:03:38.478Z,5.63
2023-02-12T16:06:11.596Z,4.82
2023-02-12T16:08:38.900Z,5.75
2023-02-12T16:11:13.952Z,5.40
2023-02-12T16:13:46.107Z,5.78
2023-02-12T16:16:12.672Z,4.85
2023-02-12T16:18:41.048Z,5.53
2023-02-12T16:21:12.712Z,5.47
2023-02-12T16:23:39.390Z,5.97
2023-02-12T16:26:06.143Z,5.40
2023-02-12T16:28:32.928Z,5.20
2023-02-12T16:31:13.635Z,4.88
2023-02-12T16:33:40.179Z,4.90
2023-02-12T16:36:13.484Z,5.10
2023-02-12T16:38:55.265Z,4.70
2023-02-12T16:41:33.412Z,5.53
2023-02-12T16:43:59.966Z,5.38
2023-02-12T16:46:28.189Z,5.78
2023-02-12T16:48:56.411Z,5.78
2023-02-12T16:51:29.031Z,6.45
2023-02-12T16:53:57.722Z,5.55
2023-02-12T16:56:29.825Z,6.10
2023-02-12T16:59:00.623Z,5.13
2023-02-12T17:01:30.465Z,6.32
2023-02-12T17:03:58.675Z,6.78
2023-02-12T17:06:28.246Z,6.63
2023-02-12T17:08:55.088Z,6.78
2023-02-12T17:11:23.140Z,6.93
2023-02-12T17:13:51.692Z,7.40
2023-02-12T17:16:29.902Z,7.30
2023-02-12T17:18:57.278Z,7.07
2023-02-12T17:21:32.373Z,6.55
2023-02-12T17:23:59.121Z,6.65
2023-02-12T17:26:25.958Z,6.82
2023-02-12T17:28:52.539Z,6.60
2023-02-12T17:31:20.971Z,6.40
2023-02-12T17:36:14.242Z,7.45
2023-02-12T17:38:40.792Z,8.77
2023-02-12T17:41:11.199Z,8.88
2023-02-12T17:43:37.869Z,8.27
2023-02-12T17:46:12.959Z,8.82
2023-02-12T17:48:40.666Z,9.15
2023-02-12T17:51:09.706Z,10.07
2023-02-12T17:53:36.262Z,9.48
2023-02-12T17:56:03.149Z,9.05
2023-02-12T17:58:30.519Z,10.57
2023-02-12T18:00:57.927Z,9.20
2023-02-12T18:03:24.787Z,10.18
2023-02-12T18:05:51.335Z,9.52
2023-02-12T18:08:17.944Z,9.70
2023-02-12T18:10:45.505Z,9.73
2023-02-12T18:13:13.798Z,9.52
2023-02-12T18:15:41.050Z,8.65
2023-02-12T18:18:07.771Z,10.13
2023-02-12T18:20:34.401Z,8.95
2023-02-12T18:23:01.074Z,9.60
2023-02-12T18:25:27.666Z,9.20
2023-02-12T18:27:54.297Z,9.77
2023-02-12T18:30:21.012Z,10.00
2023-02-12T18:32:47.705Z,10.50
2023-02-12T18:35:14.857Z,10.35
2023-02-12T18:37:43.233Z,9.55
2023-02-12T18:40:10.798Z,8.52
2023-02-12T18:42:37.499Z,8.80
2023-02-12T18:45:04.401Z,7.90
2023-02-12T18:47:31.013Z,9.27
2023-02-12T18:49:58.077Z,10.65
2023-02-12T18:52:24.862Z,8.98
2023-02-12T18:54:53.148Z,9.45
2023-02-12T18:57:19.960Z,9.45
2023-02-12T18:59:46.549Z,10.95
2023-02-12T19:02:14.113Z,10.27
2023-02-12T19:04:40.871Z,9.55
2023-02-12T19:07:07.612Z,12.30
2023-02-12T19:09:34.328Z,10.38
2023-02-12T19:12:00.958Z,10.35
2023-02-12T19:14:28.241Z,10.77
2023-02-12T19:16:54.811Z,11.38
2023-02-12T19:19:21.694Z,10.65
2023-02-12T19:21:48.837Z,10.20
2023-02-12T19:24:16.465Z,10.68
2023-02-12T19:26:44.533Z,10.50
2023-02-12T19:29:12.445Z,10.73
2023-02-12T19:31:41.688Z,10.65
2023-02-12T19:34:15.995Z,10.20
2023-02-12T19:36:43.410Z,10.30
2023-02-12T19:39:10.975Z,11.82
2023-02-12T19:41:43.477Z,10.25
2023-02-12T19:44:12.842Z,9.93
2023-02-12T19:46:40.584Z,9.88
2023-02-12T19:49:14.423Z,10.77
2023-02-12T19:51:41.766Z,11.38
2023-02-12T19:54:10.225Z,11.07
2023-02-12T19:56:37.285Z,11.70
2023-02-12T19:59:06.373Z,11.15
2023-02-12T20:01:33.436Z,12.65
2023-02-12T20:04:00.851Z,11.93
2023-02-12T20:06:30.836Z,12.00
2023-02-12T20:08:57.500Z,13.40
2023-02-12T20:11:28.859Z,12.48
2023-02-12T20:13:56.314Z,12.35
2023-02-12T20:16:24.937Z,11.50
2023-02-12T20:18:53.375Z,10.98
2023-02-12T20:21:25.482Z,11.38
2023-02-12T20:23:52.132Z,10.30
2023-02-12T20:26:19.892Z,10.30
2023-02-12T20:28:47.909Z,11.55
2023-02-12T20:31:20.631Z,11.00
2023-02-12T20:33:48.110Z,10.52
2023-02-12T20:36:15.005Z,10.65
2023-02-12T20:38:42.689Z,11.13
2023-02-12T20:41:10.393Z,12.20
2023-02-12T20:43:37.711Z,13.07
2023-02-12T20:46:09.300Z,13.30
2023-02-12T20:48:36.821Z,11.35
2023-02-12T20:51:08.696Z,11.05
2023-02-12T20:53:35.681Z,10.68
2023-02-12T20:56:07.760Z,10.27
2023-02-12T20:58:34.593Z,10.43
2023-02-12T21:01:21.189Z,10.43
2023-02-12T21:03:48.670Z,10.52
2023-02-12T21:06:15.235Z,11.43
2023-02-12T21:08:42.041Z,12.13
2023-02-12T21:11:17.911Z,11.10
2023-02-12T21:13:58.374Z,11.40
2023-02-12T21:16:30.385Z,10.70
2023-02-12T21:18:57.063Z,11.23
2023-02-12T21:21:28.333Z,11.43
2023-02-12T21:23:57.060Z,11.15
2023-02-12T21:26:25.449Z,11.32
2023-02-12T21:28:52.646Z,13.52
2023-02-12T21:31:20.957Z,12.98
2023-02-12T21:33:48.973Z,12.48
2023-02-12T21:36:20.319Z,14.63
2023-02-12T21:38:48.838Z,14.50
2023-02-12T21:44:06.353Z,12.20
2023-02-12T21:46:34.030Z,14.25
2023-02-12T21:49:00.945Z,13.53
2023-02-12T21:51:36.222Z,13.10
2023-02-12T21:54:06.445Z,13.55
2023-02-12T21:56:33.158Z,13.45
2023-02-12T21:58:59.829Z,13.30
2023-02-12T22:01:34.800Z,13.20
2023-02-12T22:04:02.598Z,12.57
2023-02-12T22:06:29.504Z,13.23
2023-02-12T22:09:00.604Z,13.13
2023-02-12T22:11:27.185Z,12.95
2023-02-12T22:13:53.791Z,13.30
2023-02-12T22:16:22.720Z,13.27
2023-02-12T22:18:51.912Z,13.30
2023-02-12T22:21:19.092Z,13.38
2023-02-12T22:23:45.768Z,14.73
2023-02-12T22:26:17.148Z,13.27
2023-02-12T22:28:46.321Z,13.85
2023-02-12T22:31:14.987Z,13.20
2023-02-12T22:33:41.541Z,13.52
2023-02-12T22:36:09.560Z,13.35
2023-02-12T22:38:37.178Z,13.32
2023-02-12T22:41:04.425Z,13.00
2023-02-12T22:43:32.383Z,13.27
2023-02-12T22:45:59.215Z,13.48
2023-02-12T22:48:26.837Z,14.43
2023-02-12T22:50:53.371Z,13.30
2023-02-12T22:53:20.324Z,12.07
2023-02-12T22:55:46.879Z,12.73
2023-02-12T22:58:13.451Z,13.27
2023-02-12T23:00:40.958Z,12.65
2023-02-12T23:03:07.614Z,13.13
2023-02-12T23:05:37.823Z,13.43
2023-02-12T23:08:05.471Z,13.60
2023-02-12T23:10:32.602Z,13.67
2023-02-12T23:12:59.347Z,13.18
2023-02-12T23:15:25.923Z,12.65
2023-02-12T23:17:52.486Z,13.00
2023-02-12T23:20:19.221Z,13.25
2023-02-12T23:22:45.772Z,13.45
2023-02-12T23:25:12.376Z,12.55
2023-02-12T23:27:39.270Z,12.98
2023-02-12T23:30:06.509Z,12.93
2023-02-12T23:32:33.085Z,12.88
2023-02-12T23:34:59.698Z,12.98
2023-02-12T23:37:26.252Z,13.13
2023-02-12T23:39:52.850Z,12.38
2023-02-12T23:42:19.456Z,13.63
2023-02-12T23:44:45.994Z,13.50
2023-02-12T23:47:12.540Z,12.73
2023-02-12T23:49:39.191Z,12.82
2023-02-12T23:52:05.781Z,13.52
2023-02-12T23:54:32.409Z,12.73
2023-02-12T23:56:59.019Z,13.75
2023-02-12T23:59:25.836Z,14.07
